createdAt,value
2022-08-14T00:01:54.670Z,92.71
2022-08-14T00:04:34.471Z,92.65
2022-08-14T00:07:06.053Z,92.51
2022-08-14T00:09:56.242Z,92.46
2022-08-14T00:12:24.305Z,92.38
2022-08-14T00:14:55.264Z,92.41
2022-08-14T00:17:23.839Z,92.99
2022-08-14T00:19:51.704Z,93.02
2022-08-14T00:22:44.539Z,93.07
2022-08-14T00:25:07.627Z,92.93
2022-08-14T00:27:37.873Z,92.85
2022-08-14T00:30:10.717Z,92.90
2022-08-14T00:32:55.820Z,92.95
2022-08-14T00:36:34.376Z,92.72
2022-08-14T00:38:10.341Z,92.82
2022-08-14T00:40:37.474Z,92.86
2022-08-14T00:43:04.463Z,92.79
2022-08-14T00:45:31.315Z,92.82
2022-08-14T00:47:57.930Z,92.51
2022-08-14T00:50:30.696Z,92.20
2022-08-14T00:52:59.664Z,92.03
2022-08-14T00:55:28.024Z,92.00
2022-08-14T00:58:18.476Z,91.79
2022-08-14T01:00:51.317Z,91.53
2022-08-14T01:03:27.319Z,91.34
2022-08-14T01:06:00.621Z,91.00
2022-08-14T01:08:51.935Z,90.65
2022-08-14T01:11:18.871Z,90.32
2022-08-14T01:13:50.769Z,90.29
2022-08-14T01:16:28.050Z,90.12
2022-08-14T01:19:19.841Z,89.99
2022-08-14T01:21:52.854Z,90.29
2022-08-14T01:24:24.694Z,90.82
2022-08-14T01:26:59.265Z,90.97
2022-08-14T01:29:58.356Z,90.90
2022-08-14T01:32:24.233Z,90.65
2022-08-14T01:35:17.851Z,90.35
2022-08-14T01:37:46.782Z,90.44
2022-08-14T01:40:25.788Z,90.36
2022-08-14T01:43:13.920Z,90.30
2022-08-14T01:45:42.095Z,90.43
2022-08-14T01:48:13.332Z,90.31
2022-08-14T01:50:42.415Z,89.99
2022-08-14T01:53:09.529Z,89.79
2022-08-14T01:55:38.933Z,89.80
2022-08-14T01:58:19.746Z,90.00
2022-08-14T02:00:53.620Z,89.94
2022-08-14T02:03:22.970Z,90.13
2022-08-14T02:05:49.575Z,90.10
2022-08-14T02:08:16.537Z,90.29
2022-08-14T02:11:13.255Z,90.40
2022-08-14T02:13:43.532Z,90.39
2022-08-14T02:16:22.427Z,90.60
2022-08-14T02:18:49.619Z,90.61
2022-08-14T02:21:17.992Z,90.57
2022-08-14T02:23:48.482Z,90.63
2022-08-14T02:26:29.395Z,90.78
2022-08-14T02:29:07.793Z,90.83
2022-08-14T02:31:44.419Z,90.92
2022-08-14T02:34:28.695Z,90.60
2022-08-14T02:37:09.389Z,90.97
2022-08-14T02:39:43.805Z,91.23
2022-08-14T02:42:37.215Z,91.08
2022-08-14T02:45:05.689Z,91.34
2022-08-14T02:47:33.831Z,91.65
2022-08-14T02:50:06.404Z,91.90
2022-08-14T02:52:57.700Z,91.75
2022-08-14T02:55:20.526Z,91.74
2022-08-14T02:57:58.206Z,91.85
2022-08-14T03:00:32.599Z,92.19
2022-08-14T03:03:01.350Z,92.67
2022-08-14T03:05:35.797Z,92.91
2022-08-14T03:08:21.585Z,92.85
2022-08-14T03:10:50.128Z,93.25
2022-08-14T03:13:21.410Z,93.45
2022-08-14T03:15:56.200Z,93.54
2022-08-14T03:18:31.663Z,93.58
2022-08-14T03:21:07.438Z,93.54
2022-08-14T03:23:37.866Z,93.81
2022-08-14T03:26:12.957Z,93.92
2022-08-14T03:28:49.138Z,94.02
2022-08-14T03:31:21.650Z,94.01
2022-08-14T03:33:51.803Z,94.17
2022-08-14T03:37:37.849Z,94.22
2022-08-14T03:39:19.004Z,94.14
2022-08-14T03:41:55.638Z,94.09
2022-08-14T03:45:19.031Z,93.86
2022-08-14T03:47:11.958Z,93.66
2022-08-14T03:49:42.326Z,93.61
2022-08-14T03:52:27.949Z,93.71
2022-08-14T03:55:00.152Z,93.61
2022-08-14T03:57:31.970Z,93.32
2022-08-14T04:00:01.959Z,93.00
2022-08-14T04:02:33.187Z,92.87
2022-08-14T04:05:12.797Z,92.85
2022-08-14T04:07:49.467Z,92.89
2022-08-14T04:10:17.565Z,92.52
2022-08-14T04:13:03.624Z,91.84
2022-08-14T04:15:55.638Z,91.70
2022-08-14T04:18:20.017Z,91.58
2022-08-14T04:20:54.269Z,91.24
2022-08-14T04:23:29.615Z,90.80
2022-08-14T04:26:03.615Z,90.94
2022-08-14T04:29:07.156Z,90.91
2022-08-14T04:32:58.555Z,90.69
2022-08-14T04:34:07.879Z,90.42
2022-08-14T04:36:55.003Z,90.28
2022-08-14T04:39:46.530Z,90.33
2022-08-14T04:42:32.622Z,90.23
2022-08-14T04:45:00.611Z,90.38
2022-08-14T04:47:46.767Z,90.50
2022-08-14T04:50:33.709Z,90.04
2022-08-14T04:53:07.897Z,89.83
2022-08-14T04:55:44.635Z,89.80
2022-08-14T04:58:21.618Z,89.10
2022-08-14T05:01:12.694Z,88.89
2022-08-14T05:03:46.722Z,88.31
2022-08-14T05:06:37.359Z,87.49
2022-08-14T05:09:00.738Z,87.70
2022-08-14T05:11:29.087Z,87.78
2022-08-14T05:14:34.362Z,87.76
2022-08-14T05:16:43.638Z,87.25
2022-08-14T05:19:17.580Z,86.66
2022-08-14T05:21:56.141Z,85.97
2022-08-14T05:24:25.885Z,85.17
2022-08-14T05:26:53.274Z,85.05
2022-08-14T05:29:20.283Z,84.91
2022-08-14T05:31:47.490Z,84.81
2022-08-14T05:34:14.091Z,84.39
2022-08-14T05:36:42.756Z,83.58
2022-08-14T05:39:17.491Z,82.77
2022-08-14T05:41:53.479Z,83.00
2022-08-14T05:44:20.655Z,83.70
2022-08-14T05:46:47.590Z,84.02
2022-08-14T05:49:14.165Z,84.65
2022-08-14T05:51:41.284Z,84.94
2022-08-14T05:54:13.692Z,85.19
2022-08-14T05:56:53.925Z,85.56
2022-08-14T05:59:30.158Z,85.69
2022-08-14T06:02:06.464Z,85.77
2022-08-14T06:04:32.982Z,86.20
2022-08-14T06:06:59.700Z,86.70
2022-08-14T06:09:26.216Z,86.34
2022-08-14T06:11:52.958Z,86.26
2022-08-14T06:14:23.848Z,86.42
2022-08-14T06:16:52.021Z,86.63
2022-08-14T06:19:23.207Z,85.92
2022-08-14T06:21:58.077Z,82.40
2022-08-14T06:24:26.088Z,79.40
2022-08-14T06:26:56.915Z,79.70
2022-08-14T06:29:32.101Z,80.37
2022-08-14T06:32:37.717Z,81.89
2022-08-14T06:35:11.405Z,83.44
2022-08-14T06:37:44.859Z,83.31
2022-08-14T06:40:27.251Z,83.67
2022-08-14T06:43:05.701Z,84.28
2022-08-14T06:45:36.141Z,84.26
2022-08-14T06:48:06.145Z,82.36
2022-08-14T06:50:39.300Z,81.11
2022-08-14T06:53:06.931Z,81.02
2022-08-14T06:55:33.983Z,80.88
2022-08-14T06:58:04.304Z,80.75
2022-08-14T07:00:32.566Z,79.81
2022-08-14T07:03:19.453Z,77.84
2022-08-14T07:05:55.664Z,77.18
2022-08-14T07:08:29.542Z,75.56
2022-08-14T07:11:03.385Z,73.40
2022-08-14T07:13:31.068Z,72.16
2022-08-14T07:16:00.545Z,70.88
2022-08-14T07:18:33.129Z,71.17
2022-08-14T07:21:02.071Z,70.25
2022-08-14T07:23:31.163Z,67.88
2022-08-14T07:25:59.882Z,65.97
2022-08-14T07:28:34.145Z,65.46
2022-08-14T07:31:07.884Z,63.65
2022-08-14T07:33:45.567Z,62.55
2022-08-14T07:36:30.127Z,63.17
2022-08-14T07:39:03.254Z,63.01
2022-08-14T07:41:39.901Z,63.29
2022-08-14T07:44:29.703Z,63.22
2022-08-14T07:46:58.043Z,63.83
2022-08-14T07:49:25.582Z,63.86
2022-08-14T07:51:52.476Z,64.85
2022-08-14T07:54:23.135Z,65.86
2022-08-14T07:57:06.312Z,65.07
2022-08-14T07:59:44.126Z,62.32
2022-08-14T08:02:18.446Z,62.16
2022-08-14T08:04:55.084Z,61.63
2022-08-14T08:07:30.608Z,60.16
2022-08-14T08:10:01.070Z,60.71
2022-08-14T08:12:38.659Z,62.57
2022-08-14T08:15:07.759Z,63.70
2022-08-14T08:17:38.961Z,64.66
2022-08-14T08:20:19.845Z,65.23
2022-08-14T08:22:56.376Z,66.19
2022-08-14T08:25:30.686Z,63.68
2022-08-14T08:28:25.162Z,64.03
2022-08-14T08:31:00.199Z,65.68
2022-08-14T08:33:32.123Z,66.19
2022-08-14T08:36:03.356Z,65.06
2022-08-14T08:39:15.728Z,63.86
2022-08-14T08:41:17.175Z,63.87
2022-08-14T08:43:46.280Z,64.22
2022-08-14T08:46:23.472Z,63.30
2022-08-14T08:51:30.978Z,63.02
2022-08-14T08:54:11.845Z,62.24
2022-08-14T08:56:47.901Z,58.53
2022-08-14T08:59:31.083Z,58.13
2022-08-14T09:02:10.167Z,58.52
2022-08-14T09:04:53.629Z,57.38
2022-08-14T09:07:27.328Z,56.27
2022-08-14T09:09:58.632Z,55.94
2022-08-14T09:12:33.219Z,57.97
2022-08-14T09:15:04.323Z,56.27
2022-08-14T09:17:41.205Z,54.96
2022-08-14T09:20:25.898Z,55.51
2022-08-14T09:23:01.508Z,53.84
2022-08-14T09:26:01.421Z,55.56
2022-08-14T09:28:28.045Z,57.40
2022-08-14T09:30:57.664Z,57.80
2022-08-14T09:33:56.823Z,59.48
2022-08-14T09:36:50.111Z,60.82
2022-08-14T09:39:46.245Z,61.00
2022-08-14T09:42:50.023Z,59.98
2022-08-14T09:45:23.555Z,60.32
2022-08-14T09:47:55.775Z,59.75
2022-08-14T09:50:44.217Z,58.87
2022-08-14T09:53:18.466Z,57.15
2022-08-14T09:55:58.957Z,56.85
2022-08-14T09:58:43.410Z,55.35
2022-08-14T10:01:18.383Z,56.75
2022-08-14T10:03:55.222Z,56.79
2022-08-14T10:06:28.287Z,54.84
2022-08-14T10:09:04.500Z,54.07
2022-08-14T10:11:35.572Z,55.36
2022-08-14T10:14:34.743Z,56.52
2022-08-14T10:17:06.469Z,57.33
2022-08-14T10:19:35.796Z,56.93
2022-08-14T10:23:12.677Z,56.72
2022-08-14T10:24:57.486Z,57.85
2022-08-14T10:27:28.128Z,59.87
2022-08-14T10:30:00.290Z,58.59
2022-08-14T10:32:39.956Z,56.71
2022-08-14T10:35:14.459Z,55.03
2022-08-14T10:37:49.935Z,53.93
2022-08-14T10:40:38.265Z,54.75
2022-08-14T10:43:25.037Z,52.96
2022-08-14T10:46:04.015Z,55.28
2022-08-14T10:48:56.344Z,55.32
2022-08-14T10:51:30.283Z,53.04
2022-08-14T10:54:35.014Z,52.67
2022-08-14T10:57:11.500Z,52.61
2022-08-14T10:59:55.728Z,53.99
2022-08-14T11:02:44.952Z,53.28
2022-08-14T11:05:18.813Z,53.41
2022-08-14T11:07:55.426Z,54.01
2022-08-14T11:10:27.632Z,54.52
2022-08-14T11:12:56.600Z,55.72
2022-08-14T11:15:28.146Z,56.82
2022-08-14T11:17:56.043Z,56.00
2022-08-14T11:20:31.321Z,55.39
2022-08-14T11:23:00.839Z,54.40
2022-08-14T11:25:36.748Z,54.41
2022-08-14T11:28:19.054Z,50.53
2022-08-14T11:30:53.806Z,50.20
2022-08-14T11:33:24.296Z,51.80
2022-08-14T11:35:51.274Z,51.77
2022-08-14T11:38:19.622Z,50.72
2022-08-14T11:40:47.655Z,51.08
2022-08-14T11:43:15.835Z,48.59
2022-08-14T11:45:50.055Z,49.25
2022-08-14T11:49:01.990Z,49.25
2022-08-14T11:51:20.495Z,47.79
2022-08-14T11:54:08.310Z,45.36
2022-08-14T11:56:39.267Z,45.69
2022-08-14T11:59:10.195Z,44.88
2022-08-14T12:01:41.017Z,45.97
2022-08-14T12:04:32.333Z,46.29
2022-08-14T12:06:57.259Z,45.51
2022-08-14T12:09:31.501Z,46.51
2022-08-14T12:11:59.156Z,46.11
2022-08-14T12:14:30.903Z,45.28
2022-08-14T12:17:12.748Z,46.02
2022-08-14T12:19:45.770Z,45.99
2022-08-14T12:22:29.842Z,46.72
2022-08-14T12:24:57.426Z,44.25
2022-08-14T12:27:53.478Z,45.04
2022-08-14T12:30:37.648Z,44.27
2022-08-14T12:33:30.947Z,43.42
2022-08-14T12:36:04.493Z,45.50
2022-08-14T12:38:43.718Z,45.84
2022-08-14T12:41:16.443Z,46.15
2022-08-14T12:43:51.231Z,46.12
2022-08-14T12:46:33.478Z,48.37
2022-08-14T12:49:10.030Z,47.59
2022-08-14T12:51:37.697Z,46.59
2022-08-14T12:54:28.257Z,44.45
2022-08-14T12:57:08.791Z,45.26
2022-08-14T12:59:42.568Z,46.45
2022-08-14T13:02:29.473Z,46.73
2022-08-14T13:04:57.326Z,46.76
2022-08-14T13:07:27.135Z,49.03
2022-08-14T13:10:29.659Z,48.26
2022-08-14T13:13:12.353Z,47.35
2022-08-14T13:15:40.175Z,47.44
2022-08-14T13:18:18.330Z,45.88
2022-08-14T13:20:49.405Z,45.33
2022-08-14T13:23:19.511Z,45.16
2022-08-14T13:25:58.692Z,46.34
2022-08-14T13:28:32.629Z,46.98
2022-08-14T13:31:04.152Z,47.18
2022-08-14T13:33:40.816Z,46.79
2022-08-14T13:36:09.834Z,46.21
2022-08-14T13:38:43.112Z,46.29
2022-08-14T13:41:10.871Z,48.61
2022-08-14T13:43:59.503Z,50.34
2022-08-14T13:46:27.969Z,49.51
2022-08-14T13:48:57.342Z,49.19
2022-08-14T13:51:35.115Z,49.92
2022-08-14T13:54:10.730Z,49.47
2022-08-14T13:56:40.773Z,47.03
2022-08-14T13:59:09.498Z,46.39
2022-08-14T14:01:43.675Z,44.98
2022-08-14T14:04:18.155Z,42.58
2022-08-14T14:06:49.530Z,41.14
2022-08-14T14:09:26.190Z,40.83
2022-08-14T14:12:00.627Z,41.60
2022-08-14T14:14:44.851Z,44.65
2022-08-14T14:17:14.535Z,46.34
2022-08-14T14:19:46.275Z,45.00
2022-08-14T14:22:36.098Z,45.02
2022-08-14T14:25:04.619Z,45.87
2022-08-14T14:27:41.507Z,45.33
2022-08-14T14:30:29.401Z,45.09
2022-08-14T14:33:05.181Z,45.75
2022-08-14T14:35:39.778Z,46.84
2022-08-14T14:38:08.485Z,45.21
2022-08-14T14:40:53.368Z,43.99
2022-08-14T14:43:27.658Z,44.71
2022-08-14T14:45:55.086Z,44.86
2022-08-14T14:48:23.085Z,44.89
2022-08-14T14:50:58.927Z,44.97
2022-08-14T14:53:27.038Z,43.99
2022-08-14T14:56:49.867Z,43.27
2022-08-14T14:58:43.211Z,41.25
2022-08-14T15:01:17.996Z,41.00
2022-08-14T15:03:45.936Z,40.94
2022-08-14T15:06:12.774Z,40.41
2022-08-14T15:08:56.333Z,44.24
2022-08-14T15:11:30.469Z,43.15
2022-08-14T15:14:00.296Z,40.40
2022-08-14T15:16:27.999Z,40.40
2022-08-14T15:18:54.807Z,39.91
2022-08-14T15:21:21.359Z,38.62
2022-08-14T15:23:50.234Z,38.07
2022-08-14T15:26:23.982Z,40.55
2022-08-14T15:29:05.861Z,42.69
2022-08-14T15:31:36.228Z,43.10
2022-08-14T15:34:43.644Z,43.82
2022-08-14T15:36:58.825Z,42.02
2022-08-14T15:39:25.998Z,41.55
2022-08-14T15:42:00.409Z,40.12
2022-08-14T15:44:34.001Z,42.34
2022-08-14T15:47:06.242Z,45.30
2022-08-14T15:49:34.844Z,47.28
2022-08-14T15:52:03.827Z,48.62
2022-08-14T15:54:31.554Z,45.89
2022-08-14T15:57:00.944Z,42.19
2022-08-14T15:59:48.176Z,41.44
2022-08-14T16:02:16.651Z,42.72
2022-08-14T16:04:45.456Z,43.17
2022-08-14T16:07:17.476Z,43.60
2022-08-14T16:09:46.893Z,45.94
2022-08-14T16:12:13.362Z,47.96
2022-08-14T16:14:45.469Z,50.83
2022-08-14T16:17:13.532Z,52.55
2022-08-14T16:19:45.390Z,51.41
2022-08-14T16:23:10.618Z,50.73
2022-08-14T16:25:03.761Z,51.12
2022-08-14T16:27:38.778Z,52.13
2022-08-14T16:30:25.157Z,53.73
2022-08-14T16:33:04.290Z,55.99
2022-08-14T16:35:42.765Z,57.09
2022-08-14T16:38:46.062Z,57.93
2022-08-14T16:41:17.816Z,58.59
2022-08-14T16:43:45.439Z,58.96
2022-08-14T16:46:22.539Z,59.20
2022-08-14T16:48:56.975Z,60.13
2022-08-14T16:51:28.437Z,60.72
2022-08-14T16:53:58.485Z,61.09
2022-08-14T16:56:30.680Z,61.46
2022-08-14T16:59:09.737Z,61.74
2022-08-14T17:01:44.493Z,62.23
2022-08-14T17:04:25.069Z,63.14
2022-08-14T17:06:57.909Z,63.93
2022-08-14T17:09:44.452Z,64.24
2022-08-14T17:12:34.080Z,65.35
2022-08-14T17:15:09.939Z,66.57
2022-08-14T17:17:58.373Z,66.47
2022-08-14T17:20:53.161Z,66.31
2022-08-14T17:23:13.724Z,65.89
2022-08-14T17:25:51.056Z,66.08
2022-08-14T17:28:51.771Z,66.61
2022-08-14T17:31:10.260Z,67.19
2022-08-14T17:33:40.976Z,67.58
2022-08-14T17:36:20.902Z,68.19
2022-08-14T17:39:14.466Z,68.47
2022-08-14T17:44:45.776Z,69.40
2022-08-14T17:47:18.024Z,69.66
2022-08-14T17:49:51.712Z,69.92
2022-08-14T17:52:34.713Z,70.16
2022-08-14T17:55:06.663Z,70.94
2022-08-14T17:57:35.226Z,72.26
2022-08-14T18:00:12.394Z,72.95
2022-08-14T18:02:40.777Z,73.92
2022-08-14T18:05:23.341Z,73.36
2022-08-14T18:08:31.357Z,73.79
2022-08-14T18:10:55.845Z,70.26
2022-08-14T18:13:50.103Z,65.76
2022-08-14T18:16:20.096Z,64.47
2022-08-14T18:18:49.406Z,66.77
2022-08-14T18:21:39.689Z,73.36
2022-08-14T18:24:04.450Z,82.15
2022-08-14T18:27:01.738Z,88.34
2022-08-14T18:29:31.740Z,94.08
2022-08-14T18:31:59.207Z,97.12
2022-08-14T18:34:38.003Z,99.58
2022-08-14T18:37:21.762Z,100.00
2022-08-14T18:40:03.193Z,100.00
2022-08-14T18:42:32.191Z,100.00
2022-08-14T18:45:12.769Z,100.00
2022-08-14T18:48:14.249Z,100.00
2022-08-14T18:50:47.279Z,100.00
2022-08-14T18:53:17.566Z,100.00
2022-08-14T18:55:54.703Z,100.00
2022-08-14T18:58:56.865Z,100.00
2022-08-14T19:01:30.382Z,100.00
2022-08-14T19:04:01.007Z,100.00
2022-08-14T19:06:50.125Z,100.00
2022-08-14T19:10:01.057Z,100.00
2022-08-14T19:13:00.597Z,100.00
2022-08-14T19:15:43.517Z,100.00
2022-08-14T19:18:28.152Z,100.00
2022-08-14T19:21:00.109Z,100.00
2022-08-14T19:23:43.890Z,100.00
2022-08-14T19:26:35.462Z,100.00
2022-08-14T19:29:37.600Z,100.00
2022-08-14T19:32:40.215Z,100.00
2022-08-14T19:35:22.935Z,100.00
2022-08-14T19:37:55.371Z,100.00
2022-08-14T19:40:40.313Z,100.00
2022-08-14T19:43:10.671Z,100.00
2022-08-14T19:45:39.275Z,100.00
2022-08-14T19:48:15.861Z,100.00
2022-08-14T19:50:46.788Z,100.00
2022-08-14T19:53:17.793Z,100.00
2022-08-14T19:56:04.931Z,100.00
2022-08-14T19:58:57.387Z,100.00
2022-08-14T20:01:36.541Z,100.00
2022-08-14T20:04:22.930Z,100.00
2022-08-14T20:06:57.809Z,100.00
2022-08-14T20:11:03.431Z,100.00
2022-08-14T20:12:35.530Z,100.00
2022-08-14T20:15:15.433Z,100.00
2022-08-14T20:17:52.344Z,100.00
2022-08-14T20:20:32.449Z,100.00
2022-08-14T20:23:11.445Z,100.00
2022-08-14T20:25:56.688Z,100.00
2022-08-14T20:28:32.990Z,100.00
2022-08-14T20:31:22.152Z,100.00
2022-08-14T20:34:24.967Z,100.00
2022-08-14T20:37:22.878Z,100.00
2022-08-14T20:39:54.407Z,100.00
2022-08-14T20:42:43.765Z,100.00
2022-08-14T20:45:24.800Z,100.00
2022-08-14T20:48:02.491Z,100.00
2022-08-14T20:50:44.844Z,100.00
2022-08-14T20:53:27.193Z,100.00
2022-08-14T20:56:00.558Z,100.00
2022-08-14T20:58:41.887Z,100.00
2022-08-14T21:01:32.679Z,100.00
2022-08-14T21:04:11.875Z,100.00
2022-08-14T21:07:23.035Z,100.00
2022-08-14T21:10:05.033Z,100.00
2022-08-14T21:12:34.208Z,100.00
2022-08-14T21:15:10.032Z,100.00
2022-08-14T21:17:41.527Z,100.00
2022-08-14T21:20:25.870Z,100.00
2022-08-14T21:23:00.615Z,100.00
2022-08-14T21:25:32.229Z,100.00
2022-08-14T21:28:05.017Z,100.00
2022-08-14T21:30:51.699Z,100.00
2022-08-14T21:33:29.236Z,100.00
2022-08-14T21:36:07.742Z,100.00
2022-08-14T21:38:38.209Z,100.00
2022-08-14T21:41:42.711Z,100.00
2022-08-14T21:44:17.858Z,100.00
2022-08-14T21:47:10.172Z,100.00
2022-08-14T21:49:43.138Z,100.00
2022-08-14T21:52:51.417Z,100.00
2022-08-14T21:55:12.457Z,100.00
2022-08-14T21:58:45.745Z,100.00
2022-08-14T22:00:42.248Z,100.00
2022-08-14T22:03:17.429Z,100.00
2022-08-14T22:05:50.020Z,100.00
2022-08-14T22:08:27.042Z,100.00
2022-08-14T22:10:56.693Z,100.00
2022-08-14T22:13:32.370Z,100.00
2022-08-14T22:16:01.939Z,100.00
2022-08-14T22:18:31.079Z,100.00
2022-08-14T22:21:00.759Z,100.00
2022-08-14T22:23:35.778Z,100.00
2022-08-14T22:26:06.794Z,100.00
2022-08-14T22:28:34.767Z,100.00
2022-08-14T22:31:10.325Z,100.00
2022-08-14T22:33:40.614Z,100.00
2022-08-14T22:36:41.944Z,100.00
2022-08-14T22:40:17.611Z,100.00
2022-08-14T22:42:23.026Z,100.00
2022-08-14T22:44:56.514Z,100.00
2022-08-14T22:47:26.211Z,100.00
2022-08-14T22:50:29.201Z,100.00
2022-08-14T22:52:59.540Z,100.00
2022-08-14T22:55:28.757Z,100.00
2022-08-14T22:57:56.979Z,100.00
2022-08-14T23:00:30.227Z,100.00
2022-08-14T23:03:01.956Z,100.00
2022-08-14T23:05:39.628Z,100.00
2022-08-14T23:08:59.796Z,100.00
2022-08-14T23:11:10.686Z,100.00
2022-08-14T23:13:43.626Z,100.00
2022-08-14T23:16:19.995Z,100.00
2022-08-14T23:18:54.218Z,100.00
2022-08-14T23:21:25.026Z,100.00
2022-08-14T23:23:56.039Z,100.00
2022-08-14T23:26:48.124Z,100.00
2022-08-14T23:29:18.836Z,100.00
2022-08-14T23:31:48.851Z,100.00
2022-08-14T23:34:21.367Z,100.00
2022-08-14T23:36:55.661Z,100.00
2022-08-14T23:39:31.739Z,100.00
2022-08-14T23:42:07.566Z,100.00
2022-08-14T23:44:38.862Z,100.00
2022-08-14T23:47:12.031Z,100.00
2022-08-14T23:50:04.139Z,100.00
2022-08-14T23:52:51.605Z,100.00
2022-08-14T23:55:33.622Z,100.00
2022-08-14T23:58:01.580Z,100.00
